sensor_id;sensor_type;location;lat;lon;timestamp;P1;durP1;ratioP1;P2;durP2;ratioP2
16510;SDS011;8368;48.772;8.754;2023-01-25T00:00:23;209.17;;;23.37;;
16510;SDS011;8368;48.772;8.754;2023-01-25T00:02:49;175.50;;;22.20;;
16510;SDS011;8368;48.772;8.754;2023-01-25T00:05:14;122.33;;;21.20;;
16510;SDS011;8368;48.772;8.754;2023-01-25T00:07:40;162.63;;;22.33;;
16510;SDS011;8368;48.772;8.754;2023-01-25T00:10:06;139.70;;;21.10;;
16510;SDS011;8368;48.772;8.754;2023-01-25T00:12:31;243.33;;;26.00;;
16510;SDS011;8368;48.772;8.754;2023-01-25T00:14:57;220.03;;;24.93;;
16510;SDS011;8368;48.772;8.754;2023-01-25T00:17:22;221.40;;;23.80;;
16510;SDS011;8368;48.772;8.754;2023-01-25T00:19:48;179.13;;;23.50;;
16510;SDS011;8368;48.772;8.754;2023-01-25T00:22:14;135.70;;;22.10;;
16510;SDS011;8368;48.772;8.754;2023-01-25T00:24:39;277.53;;;26.60;;
16510;SDS011;8368;48.772;8.754;2023-01-25T00:27:05;294.77;;;24.60;;
16510;SDS011;8368;48.772;8.754;2023-01-25T00:29:30;279.47;;;26.73;;
16510;SDS011;8368;48.772;8.754;2023-01-25T00:37:10;194.67;;;25.00;;
16510;SDS011;8368;48.772;8.754;2023-01-25T00:39:52;276.30;;;25.20;;
16510;SDS011;8368;48.772;8.754;2023-01-25T00:42:19;304.47;;;26.63;;
16510;SDS011;8368;48.772;8.754;2023-01-25T00:44:45;309.43;;;26.70;;
16510;SDS011;8368;48.772;8.754;2023-01-25T00:47:12;395.57;;;29.07;;
16510;SDS011;8368;48.772;8.754;2023-01-25T00:49:38;299.57;;;27.90;;
16510;SDS011;8368;48.772;8.754;2023-01-25T00:52:05;303.27;;;26.83;;
16510;SDS011;8368;48.772;8.754;2023-01-25T00:54:31;176.70;;;22.00;;
16510;SDS011;8368;48.772;8.754;2023-01-25T00:56:57;249.57;;;25.07;;
16510;SDS011;8368;48.772;8.754;2023-01-25T00:59:23;307.17;;;27.23;;
16510;SDS011;8368;48.772;8.754;2023-01-25T01:01:49;180.23;;;22.07;;
16510;SDS011;8368;48.772;8.754;2023-01-25T01:04:15;204.57;;;21.37;;
16510;SDS011;8368;48.772;8.754;2023-01-25T01:06:41;200.63;;;21.90;;
16510;SDS011;8368;48.772;8.754;2023-01-25T01:09:07;173.70;;;22.43;;
16510;SDS011;8368;48.772;8.754;2023-01-25T01:11:37;117.30;;;21.27;;
16510;SDS011;8368;48.772;8.754;2023-01-25T01:14:02;197.00;;;22.10;;
16510;SDS011;8368;48.772;8.754;2023-01-25T01:16:28;197.33;;;23.63;;
16510;SDS011;8368;48.772;8.754;2023-01-25T01:18:53;285.13;;;25.80;;
16510;SDS011;8368;48.772;8.754;2023-01-25T01:21:19;244.50;;;26.27;;
16510;SDS011;8368;48.772;8.754;2023-01-25T01:23:45;246.13;;;26.13;;
16510;SDS011;8368;48.772;8.754;2023-01-25T01:26:11;268.43;;;27.10;;
16510;SDS011;8368;48.772;8.754;2023-01-25T01:28:38;200.23;;;23.77;;
16510;SDS011;8368;48.772;8.754;2023-01-25T01:31:06;188.63;;;23.33;;
16510;SDS011;8368;48.772;8.754;2023-01-25T01:33:34;235.60;;;25.97;;
16510;SDS011;8368;48.772;8.754;2023-01-25T01:36:13;194.13;;;22.87;;
16510;SDS011;8368;48.772;8.754;2023-01-25T01:38:40;281.27;;;26.93;;
16510;SDS011;8368;48.772;8.754;2023-01-25T01:41:06;208.73;;;24.07;;
16510;SDS011;8368;48.772;8.754;2023-01-25T01:43:33;166.87;;;23.13;;
16510;SDS011;8368;48.772;8.754;2023-01-25T01:46:00;352.20;;;30.07;;
16510;SDS011;8368;48.772;8.754;2023-01-25T01:53:40;474.77;;;32.83;;
16510;SDS011;8368;48.772;8.754;2023-01-25T01:56:10;372.90;;;28.97;;
16510;SDS011;8368;48.772;8.754;2023-01-25T01:58:39;229.83;;;25.13;;
16510;SDS011;8368;48.772;8.754;2023-01-25T02:01:06;319.13;;;27.77;;
16510;SDS011;8368;48.772;8.754;2023-01-25T02:03:32;336.00;;;27.93;;
16510;SDS011;8368;48.772;8.754;2023-01-25T02:08:26;375.90;;;29.23;;
16510;SDS011;8368;48.772;8.754;2023-01-25T02:10:56;266.37;;;25.60;;
16510;SDS011;8368;48.772;8.754;2023-01-25T02:13:23;210.00;;;23.63;;
16510;SDS011;8368;48.772;8.754;2023-01-25T02:15:50;335.73;;;27.77;;
16510;SDS011;8368;48.772;8.754;2023-01-25T02:18:17;333.37;;;28.53;;
16510;SDS011;8368;48.772;8.754;2023-01-25T02:20:45;343.00;;;27.70;;
16510;SDS011;8368;48.772;8.754;2023-01-25T02:23:17;378.87;;;29.27;;
16510;SDS011;8368;48.772;8.754;2023-01-25T02:25:51;362.20;;;28.60;;
16510;SDS011;8368;48.772;8.754;2023-01-25T02:30:55;336.33;;;26.73;;
16510;SDS011;8368;48.772;8.754;2023-01-25T02:33:22;267.00;;;25.80;;
16510;SDS011;8368;48.772;8.754;2023-01-25T02:35:49;266.53;;;23.73;;
16510;SDS011;8368;48.772;8.754;2023-01-25T02:38:20;240.83;;;24.17;;
16510;SDS011;8368;48.772;8.754;2023-01-25T02:40:47;243.57;;;23.50;;
16510;SDS011;8368;48.772;8.754;2023-01-25T02:43:19;250.53;;;23.40;;
16510;SDS011;8368;48.772;8.754;2023-01-25T02:45:48;255.07;;;24.00;;
16510;SDS011;8368;48.772;8.754;2023-01-25T02:48:18;264.10;;;25.03;;
16510;SDS011;8368;48.772;8.754;2023-01-25T02:50:44;164.30;;;20.70;;
16510;SDS011;8368;48.772;8.754;2023-01-25T02:53:09;254.47;;;23.77;;
16510;SDS011;8368;48.772;8.754;2023-01-25T02:55:35;264.77;;;24.90;;
16510;SDS011;8368;48.772;8.754;2023-01-25T02:58:01;208.50;;;21.87;;
16510;SDS011;8368;48.772;8.754;2023-01-25T03:00:26;174.47;;;22.33;;
16510;SDS011;8368;48.772;8.754;2023-01-25T03:02:52;344.97;;;28.57;;
16510;SDS011;8368;48.772;8.754;2023-01-25T03:05:17;292.23;;;25.93;;
16510;SDS011;8368;48.772;8.754;2023-01-25T03:07:43;225.03;;;25.23;;
16510;SDS011;8368;48.772;8.754;2023-01-25T03:10:09;159.73;;;23.10;;
16510;SDS011;8368;48.772;8.754;2023-01-25T03:12:34;220.50;;;23.77;;
16510;SDS011;8368;48.772;8.754;2023-01-25T03:15:00;139.70;;;20.70;;
16510;SDS011;8368;48.772;8.754;2023-01-25T03:17:25;110.40;;;20.87;;
16510;SDS011;8368;48.772;8.754;2023-01-25T03:19:51;215.73;;;23.73;;
16510;SDS011;8368;48.772;8.754;2023-01-25T03:22:17;182.83;;;21.20;;
16510;SDS011;8368;48.772;8.754;2023-01-25T03:24:43;194.63;;;22.30;;
16510;SDS011;8368;48.772;8.754;2023-01-25T03:27:09;87.63;;;20.20;;
16510;SDS011;8368;48.772;8.754;2023-01-25T03:29:35;148.53;;;21.43;;
16510;SDS011;8368;48.772;8.754;2023-01-25T03:32:00;113.53;;;20.63;;
16510;SDS011;8368;48.772;8.754;2023-01-25T03:34:26;138.47;;;21.63;;
16510;SDS011;8368;48.772;8.754;2023-01-25T03:36:51;131.50;;;20.70;;
16510;SDS011;8368;48.772;8.754;2023-01-25T03:39:17;180.67;;;23.03;;
16510;SDS011;8368;48.772;8.754;2023-01-25T03:41:42;144.23;;;22.13;;
16510;SDS011;8368;48.772;8.754;2023-01-25T03:44:08;155.37;;;22.47;;
16510;SDS011;8368;48.772;8.754;2023-01-25T03:46:39;221.30;;;25.00;;
16510;SDS011;8368;48.772;8.754;2023-01-25T03:49:06;184.33;;;22.93;;
16510;SDS011;8368;48.772;8.754;2023-01-25T03:51:32;187.40;;;22.30;;
16510;SDS011;8368;48.772;8.754;2023-01-25T03:53:57;230.37;;;23.40;;
16510;SDS011;8368;48.772;8.754;2023-01-25T03:56:23;190.73;;;23.00;;
16510;SDS011;8368;48.772;8.754;2023-01-25T03:58:48;98.77;;;20.73;;
16510;SDS011;8368;48.772;8.754;2023-01-25T04:01:14;148.13;;;20.87;;
16510;SDS011;8368;48.772;8.754;2023-01-25T04:03:40;106.10;;;20.00;;
16510;SDS011;8368;48.772;8.754;2023-01-25T04:06:05;130.20;;;18.80;;
16510;SDS011;8368;48.772;8.754;2023-01-25T04:08:31;105.87;;;17.63;;
16510;SDS011;8368;48.772;8.754;2023-01-25T04:11:00;136.63;;;19.67;;
16510;SDS011;8368;48.772;8.754;2023-01-25T04:13:27;138.77;;;19.43;;
16510;SDS011;8368;48.772;8.754;2023-01-25T04:15:53;157.53;;;20.83;;
16510;SDS011;8368;48.772;8.754;2023-01-25T04:18:19;120.90;;;18.97;;
16510;SDS011;8368;48.772;8.754;2023-01-25T04:20:50;95.00;;;18.07;;
16510;SDS011;8368;48.772;8.754;2023-01-25T04:23:17;299.73;;;24.93;;
16510;SDS011;8368;48.772;8.754;2023-01-25T04:25:51;125.20;;;18.87;;
16510;SDS011;8368;48.772;8.754;2023-01-25T04:28:17;180.70;;;20.77;;
16510;SDS011;8368;48.772;8.754;2023-01-25T04:30:42;227.97;;;21.70;;
16510;SDS011;8368;48.772;8.754;2023-01-25T04:33:08;84.83;;;16.97;;
16510;SDS011;8368;48.772;8.754;2023-01-25T04:35:35;112.40;;;19.10;;
16510;SDS011;8368;48.772;8.754;2023-01-25T04:38:01;246.27;;;22.97;;
16510;SDS011;8368;48.772;8.754;2023-01-25T04:40:27;197.00;;;19.17;;
16510;SDS011;8368;48.772;8.754;2023-01-25T04:42:53;92.57;;;16.23;;
16510;SDS011;8368;48.772;8.754;2023-01-25T04:45:19;244.40;;;22.07;;
16510;SDS011;8368;48.772;8.754;2023-01-25T04:47:44;147.27;;;18.27;;
16510;SDS011;8368;48.772;8.754;2023-01-25T04:50:10;173.87;;;18.93;;
16510;SDS011;8368;48.772;8.754;2023-01-25T04:52:36;116.53;;;18.60;;
16510;SDS011;8368;48.772;8.754;2023-01-25T04:55:01;198.87;;;20.70;;
16510;SDS011;8368;48.772;8.754;2023-01-25T04:57:27;159.73;;;18.50;;
16510;SDS011;8368;48.772;8.754;2023-01-25T04:59:52;99.80;;;16.43;;
16510;SDS011;8368;48.772;8.754;2023-01-25T05:02:18;227.93;;;20.33;;
16510;SDS011;8368;48.772;8.754;2023-01-25T05:04:43;219.33;;;19.60;;
16510;SDS011;8368;48.772;8.754;2023-01-25T05:07:09;118.90;;;13.50;;
16510;SDS011;8368;48.772;8.754;2023-01-25T05:09:35;249.20;;;20.70;;
16510;SDS011;8368;48.772;8.754;2023-01-25T05:12:00;149.17;;;17.73;;
16510;SDS011;8368;48.772;8.754;2023-01-25T05:14:26;150.03;;;17.57;;
16510;SDS011;8368;48.772;8.754;2023-01-25T05:16:51;81.43;;;15.37;;
16510;SDS011;8368;48.772;8.754;2023-01-25T05:19:17;176.60;;;19.43;;
16510;SDS011;8368;48.772;8.754;2023-01-25T05:21:42;83.57;;;17.00;;
16510;SDS011;8368;48.772;8.754;2023-01-25T05:24:32;79.03;;;15.57;;
16510;SDS011;8368;48.772;8.754;2023-01-25T05:26:59;75.87;;;15.63;;
16510;SDS011;8368;48.772;8.754;2023-01-25T05:29:29;110.67;;;16.10;;
16510;SDS011;8368;48.772;8.754;2023-01-25T05:31:57;47.97;;;14.97;;
16510;SDS011;8368;48.772;8.754;2023-01-25T05:34:23;37.23;;;14.10;;
16510;SDS011;8368;48.772;8.754;2023-01-25T05:36:50;35.23;;;15.03;;
16510;SDS011;8368;48.772;8.754;2023-01-25T05:39:16;62.40;;;14.73;;
16510;SDS011;8368;48.772;8.754;2023-01-25T05:41:41;62.33;;;14.90;;
16510;SDS011;8368;48.772;8.754;2023-01-25T05:44:07;39.73;;;15.93;;
16510;SDS011;8368;48.772;8.754;2023-01-25T05:46:33;37.07;;;15.07;;
16510;SDS011;8368;48.772;8.754;2023-01-25T05:48:58;34.80;;;14.93;;
16510;SDS011;8368;48.772;8.754;2023-01-25T05:51:24;52.53;;;15.50;;
16510;SDS011;8368;48.772;8.754;2023-01-25T05:53:49;38.33;;;14.33;;
16510;SDS011;8368;48.772;8.754;2023-01-25T05:56:15;39.53;;;14.57;;
16510;SDS011;8368;48.772;8.754;2023-01-25T05:58:40;34.23;;;13.67;;
16510;SDS011;8368;48.772;8.754;2023-01-25T06:01:06;43.57;;;15.50;;
16510;SDS011;8368;48.772;8.754;2023-01-25T06:03:32;28.97;;;13.17;;
16510;SDS011;8368;48.772;8.754;2023-01-25T06:05:59;30.17;;;13.00;;
16510;SDS011;8368;48.772;8.754;2023-01-25T06:08:27;32.03;;;14.23;;
16510;SDS011;8368;48.772;8.754;2023-01-25T06:10:53;33.60;;;13.97;;
16510;SDS011;8368;48.772;8.754;2023-01-25T06:13:19;33.83;;;14.97;;
16510;SDS011;8368;48.772;8.754;2023-01-25T06:15:55;33.80;;;13.60;;
16510;SDS011;8368;48.772;8.754;2023-01-25T06:18:22;31.77;;;14.37;;
16510;SDS011;8368;48.772;8.754;2023-01-25T06:20:51;28.10;;;13.57;;
16510;SDS011;8368;48.772;8.754;2023-01-25T06:23:19;28.00;;;13.80;;
16510;SDS011;8368;48.772;8.754;2023-01-25T06:25:45;30.87;;;13.80;;
16510;SDS011;8368;48.772;8.754;2023-01-25T06:28:11;32.27;;;14.57;;
16510;SDS011;8368;48.772;8.754;2023-01-25T06:30:36;33.33;;;13.63;;
16510;SDS011;8368;48.772;8.754;2023-01-25T06:33:02;33.10;;;14.43;;
16510;SDS011;8368;48.772;8.754;2023-01-25T06:35:27;31.37;;;13.23;;
16510;SDS011;8368;48.772;8.754;2023-01-25T06:37:55;32.33;;;13.83;;
16510;SDS011;8368;48.772;8.754;2023-01-25T06:40:21;30.83;;;13.53;;
16510;SDS011;8368;48.772;8.754;2023-01-25T06:42:46;32.60;;;13.50;;
16510;SDS011;8368;48.772;8.754;2023-01-25T06:45:12;27.23;;;13.03;;
16510;SDS011;8368;48.772;8.754;2023-01-25T06:47:38;29.63;;;13.20;;
16510;SDS011;8368;48.772;8.754;2023-01-25T06:50:04;25.80;;;12.90;;
16510;SDS011;8368;48.772;8.754;2023-01-25T06:52:30;30.87;;;13.13;;
16510;SDS011;8368;48.772;8.754;2023-01-25T06:54:56;26.50;;;13.00;;
16510;SDS011;8368;48.772;8.754;2023-01-25T06:57:21;27.63;;;12.93;;
16510;SDS011;8368;48.772;8.754;2023-01-25T06:59:47;26.17;;;13.10;;
16510;SDS011;8368;48.772;8.754;2023-01-25T07:02:13;24.47;;;12.47;;
16510;SDS011;8368;48.772;8.754;2023-01-25T07:04:39;29.77;;;13.57;;
16510;SDS011;8368;48.772;8.754;2023-01-25T07:07:08;28.70;;;12.93;;
16510;SDS011;8368;48.772;8.754;2023-01-25T07:09:34;27.07;;;13.03;;
16510;SDS011;8368;48.772;8.754;2023-01-25T07:12:00;26.90;;;12.80;;
16510;SDS011;8368;48.772;8.754;2023-01-25T07:14:26;24.57;;;12.40;;
16510;SDS011;8368;48.772;8.754;2023-01-25T07:16:52;28.10;;;13.93;;
16510;SDS011;8368;48.772;8.754;2023-01-25T07:19:17;34.83;;;14.47;;
16510;SDS011;8368;48.772;8.754;2023-01-25T07:21:43;31.33;;;14.07;;
16510;SDS011;8368;48.772;8.754;2023-01-25T07:24:09;28.73;;;14.73;;
16510;SDS011;8368;48.772;8.754;2023-01-25T07:26:38;32.03;;;14.33;;
16510;SDS011;8368;48.772;8.754;2023-01-25T07:29:04;34.93;;;14.40;;
16510;SDS011;8368;48.772;8.754;2023-01-25T07:31:30;26.80;;;13.00;;
16510;SDS011;8368;48.772;8.754;2023-01-25T07:33:56;32.70;;;14.50;;
16510;SDS011;8368;48.772;8.754;2023-01-25T07:36:22;31.87;;;14.07;;
16510;SDS011;8368;48.772;8.754;2023-01-25T07:38:52;28.73;;;13.27;;
16510;SDS011;8368;48.772;8.754;2023-01-25T07:41:19;30.33;;;13.97;;
16510;SDS011;8368;48.772;8.754;2023-01-25T07:43:45;31.17;;;14.07;;
16510;SDS011;8368;48.772;8.754;2023-01-25T07:46:11;29.27;;;14.70;;
16510;SDS011;8368;48.772;8.754;2023-01-25T07:48:38;31.77;;;15.07;;
16510;SDS011;8368;48.772;8.754;2023-01-25T07:51:05;31.50;;;13.77;;
16510;SDS011;8368;48.772;8.754;2023-01-25T07:53:35;28.37;;;13.87;;
16510;SDS011;8368;48.772;8.754;2023-01-25T07:56:02;31.47;;;13.97;;
16510;SDS011;8368;48.772;8.754;2023-01-25T07:58:28;28.93;;;13.80;;
16510;SDS011;8368;48.772;8.754;2023-01-25T08:00:53;27.67;;;14.00;;
16510;SDS011;8368;48.772;8.754;2023-01-25T08:03:19;27.20;;;12.77;;
16510;SDS011;8368;48.772;8.754;2023-01-25T08:05:46;28.87;;;13.90;;
16510;SDS011;8368;48.772;8.754;2023-01-25T08:08:12;25.70;;;13.83;;
16510;SDS011;8368;48.772;8.754;2023-01-25T08:10:38;30.13;;;14.40;;
16510;SDS011;8368;48.772;8.754;2023-01-25T08:13:04;31.43;;;14.93;;
16510;SDS011;8368;48.772;8.754;2023-01-25T08:15:30;33.70;;;15.27;;
16510;SDS011;8368;48.772;8.754;2023-01-25T08:17:59;36.90;;;15.57;;
16510;SDS011;8368;48.772;8.754;2023-01-25T08:20:25;31.80;;;15.20;;
16510;SDS011;8368;48.772;8.754;2023-01-25T08:22:51;27.70;;;14.60;;
16510;SDS011;8368;48.772;8.754;2023-01-25T08:25:16;33.87;;;14.87;;
16510;SDS011;8368;48.772;8.754;2023-01-25T08:27:42;30.00;;;15.03;;
16510;SDS011;8368;48.772;8.754;2023-01-25T08:30:08;33.63;;;14.83;;
16510;SDS011;8368;48.772;8.754;2023-01-25T08:32:36;31.73;;;14.40;;
16510;SDS011;8368;48.772;8.754;2023-01-25T08:35:01;28.20;;;13.77;;
16510;SDS011;8368;48.772;8.754;2023-01-25T08:37:27;27.00;;;12.50;;
16510;SDS011;8368;48.772;8.754;2023-01-25T08:39:53;22.83;;;12.40;;
16510;SDS011;8368;48.772;8.754;2023-01-25T08:42:22;33.20;;;14.60;;
16510;SDS011;8368;48.772;8.754;2023-01-25T08:44:48;22.47;;;12.70;;
16510;SDS011;8368;48.772;8.754;2023-01-25T08:47:13;29.03;;;13.27;;
16510;SDS011;8368;48.772;8.754;2023-01-25T08:49:39;28.67;;;14.23;;
16510;SDS011;8368;48.772;8.754;2023-01-25T08:52:04;28.03;;;14.53;;
16510;SDS011;8368;48.772;8.754;2023-01-25T08:54:30;25.97;;;13.83;;
16510;SDS011;8368;48.772;8.754;2023-01-25T08:56:56;30.70;;;14.80;;
16510;SDS011;8368;48.772;8.754;2023-01-25T08:59:21;25.10;;;13.47;;
16510;SDS011;8368;48.772;8.754;2023-01-25T09:01:47;26.60;;;13.80;;
16510;SDS011;8368;48.772;8.754;2023-01-25T09:04:12;27.27;;;13.80;;
16510;SDS011;8368;48.772;8.754;2023-01-25T09:06:38;27.80;;;13.83;;
16510;SDS011;8368;48.772;8.754;2023-01-25T09:09:05;30.60;;;14.43;;
16510;SDS011;8368;48.772;8.754;2023-01-25T09:11:33;30.43;;;15.20;;
16510;SDS011;8368;48.772;8.754;2023-01-25T09:14:02;30.93;;;14.60;;
16510;SDS011;8368;48.772;8.754;2023-01-25T09:16:27;29.57;;;14.73;;
16510;SDS011;8368;48.772;8.754;2023-01-25T09:19:01;29.13;;;14.27;;
16510;SDS011;8368;48.772;8.754;2023-01-25T09:21:29;29.77;;;14.77;;
16510;SDS011;8368;48.772;8.754;2023-01-25T09:23:55;28.57;;;14.50;;
16510;SDS011;8368;48.772;8.754;2023-01-25T09:26:21;30.43;;;14.27;;
16510;SDS011;8368;48.772;8.754;2023-01-25T09:28:48;24.90;;;12.97;;
16510;SDS011;8368;48.772;8.754;2023-01-25T09:31:15;26.50;;;13.17;;
16510;SDS011;8368;48.772;8.754;2023-01-25T09:33:41;26.90;;;13.03;;
16510;SDS011;8368;48.772;8.754;2023-01-25T09:36:07;27.03;;;13.37;;
16510;SDS011;8368;48.772;8.754;2023-01-25T09:38:34;24.23;;;12.80;;
16510;SDS011;8368;48.772;8.754;2023-01-25T09:43:33;26.67;;;12.30;;
16510;SDS011;8368;48.772;8.754;2023-01-25T09:46:25;26.87;;;13.03;;
16510;SDS011;8368;48.772;8.754;2023-01-25T09:49:11;25.93;;;12.50;;
16510;SDS011;8368;48.772;8.754;2023-01-25T09:54:55;24.13;;;12.93;;
16510;SDS011;8368;48.772;8.754;2023-01-25T09:57:22;26.20;;;12.60;;
16510;SDS011;8368;48.772;8.754;2023-01-25T09:59:59;23.53;;;12.40;;
16510;SDS011;8368;48.772;8.754;2023-01-25T10:03:19;30.03;;;13.53;;
16510;SDS011;8368;48.772;8.754;2023-01-25T10:05:26;25.60;;;13.13;;
16510;SDS011;8368;48.772;8.754;2023-01-25T10:10:26;26.13;;;13.73;;
16510;SDS011;8368;48.772;8.754;2023-01-25T10:12:59;24.00;;;12.97;;
16510;SDS011;8368;48.772;8.754;2023-01-25T10:15:35;23.17;;;12.70;;
16510;SDS011;8368;48.772;8.754;2023-01-25T10:18:15;21.77;;;12.23;;
16510;SDS011;8368;48.772;8.754;2023-01-25T10:21:23;22.67;;;12.77;;
16510;SDS011;8368;48.772;8.754;2023-01-25T10:26:47;23.07;;;12.77;;
16510;SDS011;8368;48.772;8.754;2023-01-25T10:29:21;22.70;;;12.70;;
16510;SDS011;8368;48.772;8.754;2023-01-25T10:32:40;23.70;;;12.80;;
16510;SDS011;8368;48.772;8.754;2023-01-25T10:34:51;23.97;;;12.40;;
16510;SDS011;8368;48.772;8.754;2023-01-25T10:37:23;20.47;;;12.10;;
16510;SDS011;8368;48.772;8.754;2023-01-25T10:40:00;26.90;;;12.67;;
16510;SDS011;8368;48.772;8.754;2023-01-25T10:42:29;22.73;;;12.63;;
16510;SDS011;8368;48.772;8.754;2023-01-25T10:45:00;24.63;;;12.43;;
16510;SDS011;8368;48.772;8.754;2023-01-25T10:47:30;20.20;;;12.00;;
16510;SDS011;8368;48.772;8.754;2023-01-25T10:49:59;20.40;;;11.13;;
16510;SDS011;8368;48.772;8.754;2023-01-25T10:52:25;22.03;;;12.63;;
16510;SDS011;8368;48.772;8.754;2023-01-25T10:57:44;22.30;;;12.27;;
16510;SDS011;8368;48.772;8.754;2023-01-25T11:02:51;22.50;;;11.20;;
16510;SDS011;8368;48.772;8.754;2023-01-25T11:07:44;20.53;;;12.20;;
16510;SDS011;8368;48.772;8.754;2023-01-25T11:15:42;20.33;;;11.53;;
16510;SDS011;8368;48.772;8.754;2023-01-25T11:18:14;18.90;;;11.43;;
16510;SDS011;8368;48.772;8.754;2023-01-25T11:21:12;18.20;;;11.33;;
16510;SDS011;8368;48.772;8.754;2023-01-25T11:26:28;20.57;;;11.27;;
16510;SDS011;8368;48.772;8.754;2023-01-25T11:31:53;19.30;;;10.20;;
16510;SDS011;8368;48.772;8.754;2023-01-25T11:34:20;22.40;;;11.67;;
16510;SDS011;8368;48.772;8.754;2023-01-25T11:47:31;19.17;;;10.17;;
16510;SDS011;8368;48.772;8.754;2023-01-25T11:51:17;17.97;;;10.83;;
16510;SDS011;8368;48.772;8.754;2023-01-25T11:56:10;19.73;;;10.50;;
16510;SDS011;8368;48.772;8.754;2023-01-25T12:02:03;21.10;;;11.10;;
16510;SDS011;8368;48.772;8.754;2023-01-25T12:07:43;18.60;;;10.40;;
16510;SDS011;8368;48.772;8.754;2023-01-25T12:13:13;19.93;;;10.70;;
16510;SDS011;8368;48.772;8.754;2023-01-25T12:26:08;20.67;;;11.53;;
16510;SDS011;8368;48.772;8.754;2023-01-25T12:28:58;23.47;;;11.33;;
16510;SDS011;8368;48.772;8.754;2023-01-25T12:31:34;19.07;;;10.53;;
16510;SDS011;8368;48.772;8.754;2023-01-25T12:34:02;20.33;;;10.67;;
16510;SDS011;8368;48.772;8.754;2023-01-25T12:36:34;19.03;;;10.47;;
16510;SDS011;8368;48.772;8.754;2023-01-25T12:39:07;24.83;;;12.03;;
16510;SDS011;8368;48.772;8.754;2023-01-25T12:44:24;20.53;;;11.30;;
16510;SDS011;8368;48.772;8.754;2023-01-25T12:55:03;21.80;;;11.20;;
16510;SDS011;8368;48.772;8.754;2023-01-25T12:57:45;19.80;;;11.17;;
16510;SDS011;8368;48.772;8.754;2023-01-25T13:08:53;24.80;;;11.10;;
16510;SDS011;8368;48.772;8.754;2023-01-25T13:11:36;34.40;;;12.90;;
16510;SDS011;8368;48.772;8.754;2023-01-25T13:21:57;22.90;;;12.00;;
16510;SDS011;8368;48.772;8.754;2023-01-25T13:24:27;25.03;;;12.43;;
16510;SDS011;8368;48.772;8.754;2023-01-25T13:34:59;24.17;;;12.07;;
16510;SDS011;8368;48.772;8.754;2023-01-25T13:37:34;24.57;;;12.27;;
16510;SDS011;8368;48.772;8.754;2023-01-25T13:45:31;25.13;;;12.10;;
16510;SDS011;8368;48.772;8.754;2023-01-25T13:51:05;25.73;;;12.43;;
16510;SDS011;8368;48.772;8.754;2023-01-25T13:53:33;20.90;;;11.57;;
16510;SDS011;8368;48.772;8.754;2023-01-25T13:55:59;24.50;;;12.20;;
16510;SDS011;8368;48.772;8.754;2023-01-25T13:58:30;23.07;;;11.77;;
16510;SDS011;8368;48.772;8.754;2023-01-25T14:03:57;30.90;;;12.67;;
16510;SDS011;8368;48.772;8.754;2023-01-25T14:06:33;24.00;;;11.87;;
16510;SDS011;8368;48.772;8.754;2023-01-25T14:09:02;25.03;;;12.80;;
16510;SDS011;8368;48.772;8.754;2023-01-25T14:11:35;33.00;;;13.23;;
16510;SDS011;8368;48.772;8.754;2023-01-25T14:17:03;28.23;;;12.47;;
16510;SDS011;8368;48.772;8.754;2023-01-25T14:19:29;26.83;;;12.83;;
16510;SDS011;8368;48.772;8.754;2023-01-25T14:25:00;25.73;;;11.97;;
16510;SDS011;8368;48.772;8.754;2023-01-25T14:27:40;25.67;;;11.57;;
16510;SDS011;8368;48.772;8.754;2023-01-25T14:30:15;22.20;;;12.20;;
16510;SDS011;8368;48.772;8.754;2023-01-25T14:32:46;25.07;;;12.17;;
16510;SDS011;8368;48.772;8.754;2023-01-25T14:38:15;27.20;;;12.63;;
16510;SDS011;8368;48.772;8.754;2023-01-25T14:40:43;31.27;;;13.57;;
16510;SDS011;8368;48.772;8.754;2023-01-25T14:43:11;22.73;;;12.20;;
16510;SDS011;8368;48.772;8.754;2023-01-25T14:45:38;31.33;;;16.03;;
16510;SDS011;8368;48.772;8.754;2023-01-25T14:48:04;31.10;;;14.63;;
16510;SDS011;8368;48.772;8.754;2023-01-25T14:50:33;33.23;;;14.07;;
16510;SDS011;8368;48.772;8.754;2023-01-25T14:53:13;76.17;;;14.93;;
16510;SDS011;8368;48.772;8.754;2023-01-25T14:55:44;38.60;;;15.23;;
16510;SDS011;8368;48.772;8.754;2023-01-25T14:58:11;34.70;;;14.57;;
16510;SDS011;8368;48.772;8.754;2023-01-25T15:00:50;31.47;;;14.87;;
16510;SDS011;8368;48.772;8.754;2023-01-25T15:03:16;33.57;;;14.80;;
16510;SDS011;8368;48.772;8.754;2023-01-25T15:05:45;37.77;;;13.77;;
16510;SDS011;8368;48.772;8.754;2023-01-25T15:08:13;28.93;;;14.33;;
16510;SDS011;8368;48.772;8.754;2023-01-25T15:10:50;40.53;;;15.33;;
16510;SDS011;8368;48.772;8.754;2023-01-25T15:13:19;35.10;;;13.93;;
16510;SDS011;8368;48.772;8.754;2023-01-25T15:21:09;54.50;;;14.77;;
16510;SDS011;8368;48.772;8.754;2023-01-25T15:23:43;57.77;;;15.27;;
16510;SDS011;8368;48.772;8.754;2023-01-25T15:28:43;32.60;;;14.17;;
16510;SDS011;8368;48.772;8.754;2023-01-25T15:31:22;41.73;;;14.90;;
16510;SDS011;8368;48.772;8.754;2023-01-25T15:33:50;52.37;;;16.07;;
16510;SDS011;8368;48.772;8.754;2023-01-25T15:36:16;36.07;;;16.07;;
16510;SDS011;8368;48.772;8.754;2023-01-25T15:38:42;39.40;;;15.03;;
16510;SDS011;8368;48.772;8.754;2023-01-25T15:41:08;37.73;;;15.57;;
16510;SDS011;8368;48.772;8.754;2023-01-25T15:43:35;36.20;;;15.07;;
16510;SDS011;8368;48.772;8.754;2023-01-25T15:46:01;40.00;;;16.63;;
16510;SDS011;8368;48.772;8.754;2023-01-25T15:48:39;66.93;;;17.07;;
16510;SDS011;8368;48.772;8.754;2023-01-25T15:51:06;59.50;;;18.93;;
16510;SDS011;8368;48.772;8.754;2023-01-25T15:53:32;40.63;;;18.63;;
16510;SDS011;8368;48.772;8.754;2023-01-25T15:56:05;48.97;;;17.63;;
16510;SDS011;8368;48.772;8.754;2023-01-25T15:58:37;67.90;;;17.27;;
16510;SDS011;8368;48.772;8.754;2023-01-25T16:01:04;51.83;;;17.03;;
16510;SDS011;8368;48.772;8.754;2023-01-25T16:03:30;72.93;;;19.60;;
16510;SDS011;8368;48.772;8.754;2023-01-25T16:06:00;56.20;;;19.03;;
16510;SDS011;8368;48.772;8.754;2023-01-25T16:08:31;67.50;;;21.37;;
16510;SDS011;8368;48.772;8.754;2023-01-25T16:10:57;58.33;;;18.87;;
16510;SDS011;8368;48.772;8.754;2023-01-25T16:13:23;97.70;;;18.40;;
16510;SDS011;8368;48.772;8.754;2023-01-25T16:15:50;64.60;;;21.00;;
16510;SDS011;8368;48.772;8.754;2023-01-25T16:18:17;74.90;;;20.27;;
16510;SDS011;8368;48.772;8.754;2023-01-25T16:20:43;51.57;;;17.37;;
16510;SDS011;8368;48.772;8.754;2023-01-25T16:23:09;50.17;;;18.37;;
16510;SDS011;8368;48.772;8.754;2023-01-25T16:25:38;70.40;;;19.80;;
16510;SDS011;8368;48.772;8.754;2023-01-25T16:28:14;49.30;;;21.23;;
16510;SDS011;8368;48.772;8.754;2023-01-25T16:30:39;41.90;;;20.07;;
16510;SDS011;8368;48.772;8.754;2023-01-25T16:33:05;39.53;;;18.63;;
16510;SDS011;8368;48.772;8.754;2023-01-25T16:35:31;41.43;;;18.00;;
16510;SDS011;8368;48.772;8.754;2023-01-25T16:37:56;46.83;;;19.33;;
16510;SDS011;8368;48.772;8.754;2023-01-25T16:40:23;48.87;;;19.80;;
16510;SDS011;8368;48.772;8.754;2023-01-25T16:42:55;46.40;;;19.07;;
16510;SDS011;8368;48.772;8.754;2023-01-25T16:45:21;66.27;;;22.40;;
16510;SDS011;8368;48.772;8.754;2023-01-25T16:47:48;56.60;;;21.27;;
16510;SDS011;8368;48.772;8.754;2023-01-25T16:50:14;54.20;;;19.07;;
16510;SDS011;8368;48.772;8.754;2023-01-25T16:52:41;59.60;;;19.23;;
16510;SDS011;8368;48.772;8.754;2023-01-25T16:55:11;58.90;;;19.93;;
16510;SDS011;8368;48.772;8.754;2023-01-25T16:57:38;42.97;;;16.83;;
16510;SDS011;8368;48.772;8.754;2023-01-25T17:00:05;55.90;;;19.53;;